sensor_id;sensor_type;location;lat;lon;timestamp;P1;durP1;ratioP1;P2;durP2;ratioP2
77055;SDS011;67471;44.918;8.614;2023-07-13T00:01:27;6.50;;;2.25;;
77055;SDS011;67471;44.918;8.614;2023-07-13T00:04:32;4.93;;;2.25;;
77055;SDS011;67471;44.918;8.614;2023-07-13T00:07:36;5.10;;;2.17;;
77055;SDS011;67471;44.918;8.614;2023-07-13T00:10:40;4.47;;;2.25;;
77055;SDS011;67471;44.918;8.614;2023-07-13T00:13:44;4.25;;;2.22;;
77055;SDS011;67471;44.918;8.614;2023-07-13T00:16:48;4.22;;;2.45;;
77055;SDS011;67471;44.918;8.614;2023-07-13T00:19:52;5.50;;;2.58;;
77055;SDS011;67471;44.918;8.614;2023-07-13T00:22:56;5.53;;;2.20;;
77055;SDS011;67471;44.918;8.614;2023-07-13T00:26:00;6.95;;;2.67;;
77055;SDS011;67471;44.918;8.614;2023-07-13T00:29:05;7.10;;;3.78;;
77055;SDS011;67471;44.918;8.614;2023-07-13T00:32:12;5.90;;;2.63;;
77055;SDS011;67471;44.918;8.614;2023-07-13T00:35:16;6.35;;;2.40;;
77055;SDS011;67471;44.918;8.614;2023-07-13T00:38:20;3.75;;;2.20;;
77055;SDS011;67471;44.918;8.614;2023-07-13T00:41:27;5.60;;;2.58;;
77055;SDS011;67471;44.918;8.614;2023-07-13T00:44:30;4.63;;;1.95;;
77055;SDS011;67471;44.918;8.614;2023-07-13T00:47:34;5.22;;;2.13;;
77055;SDS011;67471;44.918;8.614;2023-07-13T00:50:38;6.60;;;2.40;;
77055;SDS011;67471;44.918;8.614;2023-07-13T00:53:43;5.88;;;2.55;;
77055;SDS011;67471;44.918;8.614;2023-07-13T00:56:48;6.18;;;2.20;;
77055;SDS011;67471;44.918;8.614;2023-07-13T00:59:57;5.07;;;2.70;;
77055;SDS011;67471;44.918;8.614;2023-07-13T01:03:10;6.82;;;3.30;;
77055;SDS011;67471;44.918;8.614;2023-07-13T01:06:14;9.05;;;2.47;;
77055;SDS011;67471;44.918;8.614;2023-07-13T01:09:17;3.97;;;2.40;;
77055;SDS011;67471;44.918;8.614;2023-07-13T01:12:21;5.28;;;2.60;;
77055;SDS011;67471;44.918;8.614;2023-07-13T01:18:43;4.88;;;2.00;;
77055;SDS011;67471;44.918;8.614;2023-07-13T01:21:50;5.85;;;3.17;;
77055;SDS011;67471;44.918;8.614;2023-07-13T01:24:54;6.57;;;2.47;;
77055;SDS011;67471;44.918;8.614;2023-07-13T01:27:58;4.45;;;2.13;;
77055;SDS011;67471;44.918;8.614;2023-07-13T01:31:02;4.40;;;1.88;;
77055;SDS011;67471;44.918;8.614;2023-07-13T01:34:06;4.05;;;2.00;;
77055;SDS011;67471;44.918;8.614;2023-07-13T01:37:12;3.30;;;2.00;;
77055;SDS011;67471;44.918;8.614;2023-07-13T01:40:16;5.93;;;2.33;;
77055;SDS011;67471;44.918;8.614;2023-07-13T01:43:20;5.25;;;2.20;;
77055;SDS011;67471;44.918;8.614;2023-07-13T01:46:24;4.35;;;2.10;;
77055;SDS011;67471;44.918;8.614;2023-07-13T01:49:31;7.00;;;2.25;;
77055;SDS011;67471;44.918;8.614;2023-07-13T01:52:35;5.05;;;2.20;;
77055;SDS011;67471;44.918;8.614;2023-07-13T01:55:39;6.43;;;2.58;;
77055;SDS011;67471;44.918;8.614;2023-07-13T01:58:44;4.70;;;2.83;;
77055;SDS011;67471;44.918;8.614;2023-07-13T02:01:48;5.88;;;1.92;;
77055;SDS011;67471;44.918;8.614;2023-07-13T02:04:52;5.50;;;1.95;;
77055;SDS011;67471;44.918;8.614;2023-07-13T02:07:56;5.40;;;2.10;;
77055;SDS011;67471;44.918;8.614;2023-07-13T02:11:00;6.45;;;2.50;;
77055;SDS011;67471;44.918;8.614;2023-07-13T02:14:04;4.63;;;2.17;;
77055;SDS011;67471;44.918;8.614;2023-07-13T02:17:09;6.40;;;2.50;;
77055;SDS011;67471;44.918;8.614;2023-07-13T02:20:13;5.45;;;2.42;;
77055;SDS011;67471;44.918;8.614;2023-07-13T02:23:17;4.75;;;2.28;;
77055;SDS011;67471;44.918;8.614;2023-07-13T02:26:21;5.78;;;2.03;;
77055;SDS011;67471;44.918;8.614;2023-07-13T02:29:25;7.30;;;2.40;;
77055;SDS011;67471;44.918;8.614;2023-07-13T02:32:29;8.82;;;2.42;;
77055;SDS011;67471;44.918;8.614;2023-07-13T02:35:33;4.30;;;2.33;;
77055;SDS011;67471;44.918;8.614;2023-07-13T02:38:37;5.22;;;3.00;;
77055;SDS011;67471;44.918;8.614;2023-07-13T02:41:40;5.25;;;2.50;;
77055;SDS011;67471;44.918;8.614;2023-07-13T02:44:47;3.80;;;2.13;;
77055;SDS011;67471;44.918;8.614;2023-07-13T02:47:51;5.32;;;2.00;;
77055;SDS011;67471;44.918;8.614;2023-07-13T02:50:55;3.83;;;1.98;;
77055;SDS011;67471;44.918;8.614;2023-07-13T02:53:58;4.68;;;2.17;;
77055;SDS011;67471;44.918;8.614;2023-07-13T02:57:02;4.50;;;2.15;;
77055;SDS011;67471;44.918;8.614;2023-07-13T03:00:06;5.65;;;2.83;;
77055;SDS011;67471;44.918;8.614;2023-07-13T03:03:12;8.07;;;2.33;;
77055;SDS011;67471;44.918;8.614;2023-07-13T03:06:17;5.65;;;2.10;;
77055;SDS011;67471;44.918;8.614;2023-07-13T03:09:26;8.35;;;1.90;;
77055;SDS011;67471;44.918;8.614;2023-07-13T03:12:31;4.90;;;2.30;;
77055;SDS011;67471;44.918;8.614;2023-07-13T03:15:35;3.53;;;2.33;;
77055;SDS011;67471;44.918;8.614;2023-07-13T03:18:43;4.53;;;2.60;;
77055;SDS011;67471;44.918;8.614;2023-07-13T03:21:48;4.70;;;2.40;;
77055;SDS011;67471;44.918;8.614;2023-07-13T03:24:52;5.68;;;2.63;;
77055;SDS011;67471;44.918;8.614;2023-07-13T03:27:58;4.78;;;2.58;;
77055;SDS011;67471;44.918;8.614;2023-07-13T03:31:03;7.57;;;2.47;;
77055;SDS011;67471;44.918;8.614;2023-07-13T03:34:10;5.50;;;2.33;;
77055;SDS011;67471;44.918;8.614;2023-07-13T03:37:15;5.47;;;2.67;;
77055;SDS011;67471;44.918;8.614;2023-07-13T03:40:18;5.35;;;2.58;;
77055;SDS011;67471;44.918;8.614;2023-07-13T03:43:23;4.85;;;2.50;;
77055;SDS011;67471;44.918;8.614;2023-07-13T03:46:27;5.03;;;2.40;;
77055;SDS011;67471;44.918;8.614;2023-07-13T03:49:31;5.55;;;2.20;;
77055;SDS011;67471;44.918;8.614;2023-07-13T03:52:35;6.43;;;2.55;;
77055;SDS011;67471;44.918;8.614;2023-07-13T03:55:38;6.68;;;2.67;;
77055;SDS011;67471;44.918;8.614;2023-07-13T03:58:44;8.98;;;2.60;;
77055;SDS011;67471;44.918;8.614;2023-07-13T04:02:00;8.18;;;2.53;;
77055;SDS011;67471;44.918;8.614;2023-07-13T04:05:05;5.90;;;2.22;;
77055;SDS011;67471;44.918;8.614;2023-07-13T04:08:09;5.05;;;2.90;;
77055;SDS011;67471;44.918;8.614;2023-07-13T04:11:17;5.05;;;2.40;;
77055;SDS011;67471;44.918;8.614;2023-07-13T04:14:25;5.63;;;2.60;;
77055;SDS011;67471;44.918;8.614;2023-07-13T04:17:28;4.50;;;2.50;;
77055;SDS011;67471;44.918;8.614;2023-07-13T04:20:32;7.07;;;2.80;;
77055;SDS011;67471;44.918;8.614;2023-07-13T04:23:36;4.63;;;2.40;;
77055;SDS011;67471;44.918;8.614;2023-07-13T04:26:41;3.90;;;2.42;;
77055;SDS011;67471;44.918;8.614;2023-07-13T04:29:44;5.25;;;2.60;;
77055;SDS011;67471;44.918;8.614;2023-07-13T04:32:51;6.20;;;2.70;;
77055;SDS011;67471;44.918;8.614;2023-07-13T04:35:55;8.02;;;3.85;;
77055;SDS011;67471;44.918;8.614;2023-07-13T04:39:00;6.18;;;3.28;;
77055;SDS011;67471;44.918;8.614;2023-07-13T04:42:04;5.88;;;4.38;;
77055;SDS011;67471;44.918;8.614;2023-07-13T04:45:08;7.25;;;3.70;;
77055;SDS011;67471;44.918;8.614;2023-07-13T04:48:13;6.47;;;2.90;;
77055;SDS011;67471;44.918;8.614;2023-07-13T04:51:17;6.90;;;3.20;;
77055;SDS011;67471;44.918;8.614;2023-07-13T04:54:20;8.25;;;3.10;;
77055;SDS011;67471;44.918;8.614;2023-07-13T04:57:25;5.95;;;3.33;;
77055;SDS011;67471;44.918;8.614;2023-07-13T05:00:29;7.88;;;3.45;;
77055;SDS011;67471;44.918;8.614;2023-07-13T05:03:33;7.78;;;4.00;;
77055;SDS011;67471;44.918;8.614;2023-07-13T05:06:37;6.63;;;3.35;;
77055;SDS011;67471;44.918;8.614;2023-07-13T05:09:42;8.00;;;5.68;;
77055;SDS011;67471;44.918;8.614;2023-07-13T05:12:45;13.45;;;8.63;;
77055;SDS011;67471;44.918;8.614;2023-07-13T05:15:59;11.23;;;6.53;;
77055;SDS011;67471;44.918;8.614;2023-07-13T05:19:08;9.33;;;4.93;;
77055;SDS011;67471;44.918;8.614;2023-07-13T05:22:12;13.25;;;5.20;;
77055;SDS011;67471;44.918;8.614;2023-07-13T05:25:15;9.90;;;4.75;;
77055;SDS011;67471;44.918;8.614;2023-07-13T05:28:20;11.68;;;4.28;;
77055;SDS011;67471;44.918;8.614;2023-07-13T05:31:24;6.90;;;4.40;;
77055;SDS011;67471;44.918;8.614;2023-07-13T05:34:31;9.75;;;5.20;;
77055;SDS011;67471;44.918;8.614;2023-07-13T05:37:36;10.50;;;4.57;;
77055;SDS011;67471;44.918;8.614;2023-07-13T05:40:42;8.05;;;4.60;;
77055;SDS011;67471;44.918;8.614;2023-07-13T05:43:47;10.88;;;4.28;;
77055;SDS011;67471;44.918;8.614;2023-07-13T05:46:50;8.73;;;4.10;;
77055;SDS011;67471;44.918;8.614;2023-07-13T05:49:54;7.70;;;3.72;;
77055;SDS011;67471;44.918;8.614;2023-07-13T05:52:58;9.57;;;4.43;;
77055;SDS011;67471;44.918;8.614;2023-07-13T05:56:02;8.05;;;4.72;;
77055;SDS011;67471;44.918;8.614;2023-07-13T05:59:05;6.68;;;4.03;;
77055;SDS011;67471;44.918;8.614;2023-07-13T06:02:09;8.95;;;4.47;;
77055;SDS011;67471;44.918;8.614;2023-07-13T06:05:14;8.57;;;4.85;;
77055;SDS011;67471;44.918;8.614;2023-07-13T06:08:18;8.15;;;4.03;;
77055;SDS011;67471;44.918;8.614;2023-07-13T06:11:22;8.20;;;4.22;;
77055;SDS011;67471;44.918;8.614;2023-07-13T06:14:27;7.85;;;4.28;;
77055;SDS011;67471;44.918;8.614;2023-07-13T06:17:31;10.50;;;3.78;;
77055;SDS011;67471;44.918;8.614;2023-07-13T06:20:35;7.60;;;3.72;;
77055;SDS011;67471;44.918;8.614;2023-07-13T06:23:39;7.85;;;4.18;;
77055;SDS011;67471;44.918;8.614;2023-07-13T06:26:42;8.20;;;4.15;;
77055;SDS011;67471;44.918;8.614;2023-07-13T06:29:46;9.93;;;3.85;;
77055;SDS011;67471;44.918;8.614;2023-07-13T06:32:50;6.25;;;3.60;;
77055;SDS011;67471;44.918;8.614;2023-07-13T06:35:56;8.32;;;3.17;;
77055;SDS011;67471;44.918;8.614;2023-07-13T06:39:00;6.40;;;3.10;;
77055;SDS011;67471;44.918;8.614;2023-07-13T06:42:05;7.63;;;3.80;;
77055;SDS011;67471;44.918;8.614;2023-07-13T06:45:09;7.25;;;3.05;;
77055;SDS011;67471;44.918;8.614;2023-07-13T06:48:13;7.78;;;2.97;;
77055;SDS011;67471;44.918;8.614;2023-07-13T06:51:17;4.65;;;3.03;;
77055;SDS011;67471;44.918;8.614;2023-07-13T06:54:21;6.93;;;2.85;;
77055;SDS011;67471;44.918;8.614;2023-07-13T06:57:25;6.45;;;3.30;;
77055;SDS011;67471;44.918;8.614;2023-07-13T07:00:29;16.80;;;4.32;;
77055;SDS011;67471;44.918;8.614;2023-07-13T07:03:33;8.43;;;3.40;;
77055;SDS011;67471;44.918;8.614;2023-07-13T07:06:37;18.92;;;4.88;;
77055;SDS011;67471;44.918;8.614;2023-07-13T07:09:41;8.57;;;3.88;;
77055;SDS011;67471;44.918;8.614;2023-07-13T07:12:44;9.15;;;3.90;;
77055;SDS011;67471;44.918;8.614;2023-07-13T07:15:49;7.95;;;2.90;;
77055;SDS011;67471;44.918;8.614;2023-07-13T07:18:54;9.73;;;3.47;;
77055;SDS011;67471;44.918;8.614;2023-07-13T07:21:57;7.80;;;3.28;;
77055;SDS011;67471;44.918;8.614;2023-07-13T07:25:01;5.90;;;2.95;;
77055;SDS011;67471;44.918;8.614;2023-07-13T07:28:05;8.07;;;3.35;;
77055;SDS011;67471;44.918;8.614;2023-07-13T07:31:09;4.65;;;3.05;;
77055;SDS011;67471;44.918;8.614;2023-07-13T07:34:14;8.85;;;3.40;;
77055;SDS011;67471;44.918;8.614;2023-07-13T07:37:20;11.75;;;3.42;;
77055;SDS011;67471;44.918;8.614;2023-07-13T07:40:25;8.52;;;3.75;;
77055;SDS011;67471;44.918;8.614;2023-07-13T07:43:29;8.05;;;4.10;;
77055;SDS011;67471;44.918;8.614;2023-07-13T07:46:33;7.35;;;4.07;;
77055;SDS011;67471;44.918;8.614;2023-07-13T07:49:37;10.60;;;4.35;;
77055;SDS011;67471;44.918;8.614;2023-07-13T07:52:41;8.63;;;4.38;;
77055;SDS011;67471;44.918;8.614;2023-07-13T07:55:47;6.38;;;4.00;;
77055;SDS011;67471;44.918;8.614;2023-07-13T07:58:51;6.80;;;4.15;;
77055;SDS011;67471;44.918;8.614;2023-07-13T08:01:55;9.57;;;4.22;;
77055;SDS011;67471;44.918;8.614;2023-07-13T08:04:59;7.45;;;4.47;;
77055;SDS011;67471;44.918;8.614;2023-07-13T08:08:03;10.20;;;3.95;;
77055;SDS011;67471;44.918;8.614;2023-07-13T08:11:06;10.88;;;4.28;;
77055;SDS011;67471;44.918;8.614;2023-07-13T08:14:11;8.15;;;4.40;;
77055;SDS011;67471;44.918;8.614;2023-07-13T08:17:15;8.10;;;4.88;;
77055;SDS011;67471;44.918;8.614;2023-07-13T08:20:19;9.73;;;5.07;;
77055;SDS011;67471;44.918;8.614;2023-07-13T08:23:22;14.48;;;4.95;;
77055;SDS011;67471;44.918;8.614;2023-07-13T08:26:26;9.32;;;5.60;;
77055;SDS011;67471;44.918;8.614;2023-07-13T08:29:30;12.27;;;4.72;;
77055;SDS011;67471;44.918;8.614;2023-07-13T08:32:36;6.47;;;4.20;;
77055;SDS011;67471;44.918;8.614;2023-07-13T08:35:41;8.52;;;4.32;;
77055;SDS011;67471;44.918;8.614;2023-07-13T08:38:44;9.13;;;4.30;;
77055;SDS011;67471;44.918;8.614;2023-07-13T08:41:49;8.23;;;4.72;;
77055;SDS011;67471;44.918;8.614;2023-07-13T08:48:18;8.15;;;5.25;;
77055;SDS011;67471;44.918;8.614;2023-07-13T08:55:16;9.52;;;4.60;;
77055;SDS011;67471;44.918;8.614;2023-07-13T08:58:23;10.70;;;4.80;;
77055;SDS011;67471;44.918;8.614;2023-07-13T09:05:18;7.78;;;4.22;;
77055;SDS011;67471;44.918;8.614;2023-07-13T09:08:31;8.73;;;4.10;;
77055;SDS011;67471;44.918;8.614;2023-07-13T09:14:56;8.75;;;3.90;;
77055;SDS011;67471;44.918;8.614;2023-07-13T09:18:11;9.48;;;3.70;;
77055;SDS011;67471;44.918;8.614;2023-07-13T09:21:22;7.55;;;4.45;;
77055;SDS011;67471;44.918;8.614;2023-07-13T09:27:39;11.60;;;4.18;;
77055;SDS011;67471;44.918;8.614;2023-07-13T09:30:49;7.30;;;4.22;;
77055;SDS011;67471;44.918;8.614;2023-07-13T09:33:57;14.15;;;5.15;;
77055;SDS011;67471;44.918;8.614;2023-07-13T09:37:01;8.43;;;5.13;;
77055;SDS011;67471;44.918;8.614;2023-07-13T09:40:07;8.70;;;5.55;;
77055;SDS011;67471;44.918;8.614;2023-07-13T09:43:17;7.85;;;4.88;;
77055;SDS011;67471;44.918;8.614;2023-07-13T09:46:23;10.68;;;5.13;;
77055;SDS011;67471;44.918;8.614;2023-07-13T09:49:36;7.97;;;4.60;;
77055;SDS011;67471;44.918;8.614;2023-07-13T09:55:45;7.20;;;4.38;;
77055;SDS011;67471;44.918;8.614;2023-07-13T09:58:51;8.55;;;4.63;;
77055;SDS011;67471;44.918;8.614;2023-07-13T10:01:54;7.32;;;4.63;;
77055;SDS011;67471;44.918;8.614;2023-07-13T10:08:14;8.68;;;5.55;;
77055;SDS011;67471;44.918;8.614;2023-07-13T10:11:28;9.10;;;5.32;;
77055;SDS011;67471;44.918;8.614;2023-07-13T10:14:34;8.63;;;4.68;;
77055;SDS011;67471;44.918;8.614;2023-07-13T10:17:37;12.13;;;4.95;;
77055;SDS011;67471;44.918;8.614;2023-07-13T10:20:41;9.68;;;5.00;;
77055;SDS011;67471;44.918;8.614;2023-07-13T10:23:47;10.70;;;4.88;;
77055;SDS011;67471;44.918;8.614;2023-07-13T10:27:17;11.68;;;4.60;;
77055;SDS011;67471;44.918;8.614;2023-07-13T10:30:24;9.52;;;4.50;;
77055;SDS011;67471;44.918;8.614;2023-07-13T10:33:32;12.25;;;3.80;;
77055;SDS011;67471;44.918;8.614;2023-07-13T10:36:46;6.18;;;3.58;;
77055;SDS011;67471;44.918;8.614;2023-07-13T10:39:52;9.57;;;4.00;;
77055;SDS011;67471;44.918;8.614;2023-07-13T10:42:59;10.97;;;4.70;;
77055;SDS011;67471;44.918;8.614;2023-07-13T10:46:05;9.38;;;3.88;;
77055;SDS011;67471;44.918;8.614;2023-07-13T10:49:11;11.02;;;4.53;;
77055;SDS011;67471;44.918;8.614;2023-07-13T10:59:09;10.70;;;4.88;;
77055;SDS011;67471;44.918;8.614;2023-07-13T11:02:23;10.07;;;5.10;;
77055;SDS011;67471;44.918;8.614;2023-07-13T11:05:31;9.95;;;5.03;;
77055;SDS011;67471;44.918;8.614;2023-07-13T11:11:50;11.75;;;4.78;;
77055;SDS011;67471;44.918;8.614;2023-07-13T11:18:02;7.07;;;4.28;;
77055;SDS011;67471;44.918;8.614;2023-07-13T11:21:17;9.73;;;4.68;;
77055;SDS011;67471;44.918;8.614;2023-07-13T11:24:47;11.45;;;4.43;;
77055;SDS011;67471;44.918;8.614;2023-07-13T11:31:15;9.75;;;4.55;;
77055;SDS011;67471;44.918;8.614;2023-07-13T11:34:27;9.25;;;5.10;;
77055;SDS011;67471;44.918;8.614;2023-07-13T11:37:34;10.73;;;4.68;;
77055;SDS011;67471;44.918;8.614;2023-07-13T11:40:38;12.77;;;4.78;;
77055;SDS011;67471;44.918;8.614;2023-07-13T11:43:43;10.05;;;4.05;;
77055;SDS011;67471;44.918;8.614;2023-07-13T11:46:49;12.70;;;5.80;;
77055;SDS011;67471;44.918;8.614;2023-07-13T11:49:56;9.02;;;4.60;;
77055;SDS011;67471;44.918;8.614;2023-07-13T11:53:00;11.50;;;4.47;;
77055;SDS011;67471;44.918;8.614;2023-07-13T11:56:04;12.20;;;4.70;;
77055;SDS011;67471;44.918;8.614;2023-07-13T11:59:10;9.95;;;4.53;;
77055;SDS011;67471;44.918;8.614;2023-07-13T12:02:29;10.10;;;4.55;;
77055;SDS011;67471;44.918;8.614;2023-07-13T12:05:35;8.73;;;4.72;;
77055;SDS011;67471;44.918;8.614;2023-07-13T12:08:40;13.55;;;4.97;;
77055;SDS011;67471;44.918;8.614;2023-07-13T12:11:43;9.95;;;4.43;;
77055;SDS011;67471;44.918;8.614;2023-07-13T12:14:50;8.45;;;4.20;;
77055;SDS011;67471;44.918;8.614;2023-07-13T12:17:55;11.27;;;4.97;;
77055;SDS011;67471;44.918;8.614;2023-07-13T12:20:59;13.15;;;4.40;;
77055;SDS011;67471;44.918;8.614;2023-07-13T12:24:04;11.88;;;4.93;;
77055;SDS011;67471;44.918;8.614;2023-07-13T12:27:21;13.10;;;5.10;;
77055;SDS011;67471;44.918;8.614;2023-07-13T12:30:30;11.68;;;4.90;;
77055;SDS011;67471;44.918;8.614;2023-07-13T12:33:39;13.30;;;4.75;;
77055;SDS011;67471;44.918;8.614;2023-07-13T12:36:54;10.80;;;4.07;;
77055;SDS011;67471;44.918;8.614;2023-07-13T12:39:59;10.25;;;5.07;;
77055;SDS011;67471;44.918;8.614;2023-07-13T12:43:03;10.88;;;4.72;;
77055;SDS011;67471;44.918;8.614;2023-07-13T12:46:15;13.40;;;4.57;;
77055;SDS011;67471;44.918;8.614;2023-07-13T12:49:25;18.85;;;5.57;;
77055;SDS011;67471;44.918;8.614;2023-07-13T12:52:32;10.43;;;4.20;;
77055;SDS011;67471;44.918;8.614;2023-07-13T12:55:41;9.52;;;4.20;;
77055;SDS011;67471;44.918;8.614;2023-07-13T12:58:47;10.48;;;4.63;;
77055;SDS011;67471;44.918;8.614;2023-07-13T13:01:57;6.15;;;4.05;;
77055;SDS011;67471;44.918;8.614;2023-07-13T13:05:03;10.93;;;4.18;;
77055;SDS011;67471;44.918;8.614;2023-07-13T13:08:10;9.32;;;4.35;;
77055;SDS011;67471;44.918;8.614;2023-07-13T13:11:15;13.05;;;4.30;;
77055;SDS011;67471;44.918;8.614;2023-07-13T13:14:19;9.85;;;4.40;;
77055;SDS011;67471;44.918;8.614;2023-07-13T13:17:29;10.68;;;4.50;;
77055;SDS011;67471;44.918;8.614;2023-07-13T13:20:35;9.70;;;3.95;;
77055;SDS011;67471;44.918;8.614;2023-07-13T13:23:39;12.45;;;4.20;;
77055;SDS011;67471;44.918;8.614;2023-07-13T13:26:43;9.77;;;5.25;;
77055;SDS011;67471;44.918;8.614;2023-07-13T13:29:51;7.70;;;4.50;;
77055;SDS011;67471;44.918;8.614;2023-07-13T13:32:56;13.38;;;4.95;;
77055;SDS011;67471;44.918;8.614;2023-07-13T13:36:00;9.00;;;4.45;;
77055;SDS011;67471;44.918;8.614;2023-07-13T13:39:35;9.30;;;4.32;;
77055;SDS011;67471;44.918;8.614;2023-07-13T13:42:30;10.07;;;4.93;;
77055;SDS011;67471;44.918;8.614;2023-07-13T13:45:34;6.53;;;4.35;;
77055;SDS011;67471;44.918;8.614;2023-07-13T13:48:38;9.38;;;4.35;;
77055;SDS011;67471;44.918;8.614;2023-07-13T13:51:46;7.75;;;4.05;;
77055;SDS011;67471;44.918;8.614;2023-07-13T13:54:50;7.13;;;3.90;;
77055;SDS011;67471;44.918;8.614;2023-07-13T13:57:53;10.88;;;4.50;;
77055;SDS011;67471;44.918;8.614;2023-07-13T14:00:57;10.00;;;4.57;;
77055;SDS011;67471;44.918;8.614;2023-07-13T14:04:01;8.27;;;3.83;;
77055;SDS011;67471;44.918;8.614;2023-07-13T14:07:07;7.07;;;3.92;;
77055;SDS011;67471;44.918;8.614;2023-07-13T14:10:11;9.68;;;4.78;;
77055;SDS011;67471;44.918;8.614;2023-07-13T14:13:21;10.02;;;4.30;;
77055;SDS011;67471;44.918;8.614;2023-07-13T14:16:31;10.52;;;4.63;;
77055;SDS011;67471;44.918;8.614;2023-07-13T14:19:37;8.23;;;4.32;;
77055;SDS011;67471;44.918;8.614;2023-07-13T14:22:40;9.35;;;4.43;;
77055;SDS011;67471;44.918;8.614;2023-07-13T14:25:47;8.00;;;3.97;;
77055;SDS011;67471;44.918;8.614;2023-07-13T14:28:52;8.30;;;4.57;;
77055;SDS011;67471;44.918;8.614;2023-07-13T14:31:58;8.15;;;3.88;;
77055;SDS011;67471;44.918;8.614;2023-07-13T14:35:02;8.15;;;4.47;;
77055;SDS011;67471;44.918;8.614;2023-07-13T14:38:07;11.77;;;4.43;;
77055;SDS011;67471;44.918;8.614;2023-07-13T14:41:15;9.30;;;4.15;;
77055;SDS011;67471;44.918;8.614;2023-07-13T14:44:20;12.48;;;4.28;;
77055;SDS011;67471;44.918;8.614;2023-07-13T14:47:26;12.15;;;4.93;;
77055;SDS011;67471;44.918;8.614;2023-07-13T14:50:31;9.15;;;4.70;;
77055;SDS011;67471;44.918;8.614;2023-07-13T14:53:35;10.35;;;4.20;;
77055;SDS011;67471;44.918;8.614;2023-07-13T14:56:41;8.27;;;4.65;;
77055;SDS011;67471;44.918;8.614;2023-07-13T14:59:46;14.02;;;4.55;;
77055;SDS011;67471;44.918;8.614;2023-07-13T15:02:52;14.38;;;4.82;;
77055;SDS011;67471;44.918;8.614;2023-07-13T15:05:58;7.03;;;4.18;;
77055;SDS011;67471;44.918;8.614;2023-07-13T15:09:02;11.50;;;4.53;;
77055;SDS011;67471;44.918;8.614;2023-07-13T15:12:06;8.77;;;4.15;;
77055;SDS011;67471;44.918;8.614;2023-07-13T15:15:10;8.82;;;4.35;;
77055;SDS011;67471;44.918;8.614;2023-07-13T15:18:15;13.52;;;4.60;;
77055;SDS011;67471;44.918;8.614;2023-07-13T15:21:23;7.68;;;4.07;;
77055;SDS011;67471;44.918;8.614;2023-07-13T15:24:27;13.73;;;5.53;;
77055;SDS011;67471;44.918;8.614;2023-07-13T15:27:31;13.38;;;4.80;;
77055;SDS011;67471;44.918;8.614;2023-07-13T15:30:36;9.40;;;4.57;;
77055;SDS011;67471;44.918;8.614;2023-07-13T15:33:44;13.25;;;4.97;;
77055;SDS011;67471;44.918;8.614;2023-07-13T15:36:48;10.98;;;4.60;;
77055;SDS011;67471;44.918;8.614;2023-07-13T15:39:54;10.60;;;4.57;;
77055;SDS011;67471;44.918;8.614;2023-07-13T15:42:58;8.55;;;4.15;;
77055;SDS011;67471;44.918;8.614;2023-07-13T15:46:01;14.73;;;4.93;;
77055;SDS011;67471;44.918;8.614;2023-07-13T15:49:08;10.48;;;4.90;;
77055;SDS011;67471;44.918;8.614;2023-07-13T15:52:22;8.95;;;4.53;;
77055;SDS011;67471;44.918;8.614;2023-07-13T15:55:27;9.05;;;4.70;;
77055;SDS011;67471;44.918;8.614;2023-07-13T15:58:30;12.23;;;4.60;;
77055;SDS011;67471;44.918;8.614;2023-07-13T16:01:34;13.07;;;4.53;;
77055;SDS011;67471;44.918;8.614;2023-07-13T16:04:38;8.80;;;5.07;;
77055;SDS011;67471;44.918;8.614;2023-07-13T16:07:43;10.10;;;5.15;;
77055;SDS011;67471;44.918;8.614;2023-07-13T16:10:48;9.60;;;4.50;;
77055;SDS011;67471;44.918;8.614;2023-07-13T16:13:52;11.00;;;4.13;;
77055;SDS011;67471;44.918;8.614;2023-07-13T16:16:58;11.03;;;4.20;;
77055;SDS011;67471;44.918;8.614;2023-07-13T16:20:02;10.82;;;5.00;;
77055;SDS011;67471;44.918;8.614;2023-07-13T16:23:08;9.93;;;4.65;;
77055;SDS011;67471;44.918;8.614;2023-07-13T16:26:35;11.87;;;5.03;;
77055;SDS011;67471;44.918;8.614;2023-07-13T16:29:45;11.88;;;4.65;;
77055;SDS011;67471;44.918;8.614;2023-07-13T16:32:49;9.35;;;4.68;;
77055;SDS011;67471;44.918;8.614;2023-07-13T16:35:55;14.43;;;5.20;;
77055;SDS011;67471;44.918;8.614;2023-07-13T16:38:59;13.15;;;4.70;;
77055;SDS011;67471;44.918;8.614;2023-07-13T16:42:03;11.63;;;4.53;;
77055;SDS011;67471;44.918;8.614;2023-07-13T16:45:08;12.45;;;4.93;;
77055;SDS011;67471;44.918;8.614;2023-07-13T16:48:17;9.43;;;5.28;;
77055;SDS011;67471;44.918;8.614;2023-07-13T16:51:24;13.18;;;4.97;;
77055;SDS011;67471;44.918;8.614;2023-07-13T16:54:30;9.20;;;5.03;;
77055;SDS011;67471;44.918;8.614;2023-07-13T16:57:35;9.68;;;4.63;;
77055;SDS011;67471;44.918;8.614;2023-07-13T17:00:40;14.25;;;5.13;;
77055;SDS011;67471;44.918;8.614;2023-07-13T17:03:45;11.88;;;4.60;;
77055;SDS011;67471;44.918;8.614;2023-07-13T17:06:50;11.65;;;4.15;;
77055;SDS011;67471;44.918;8.614;2023-07-13T17:09:54;11.52;;;4.10;;
77055;SDS011;67471;44.918;8.614;2023-07-13T17:12:58;7.90;;;3.72;;
77055;SDS011;67471;44.918;8.614;2023-07-13T17:16:02;9.00;;;3.80;;
77055;SDS011;67471;44.918;8.614;2023-07-13T17:19:11;6.65;;;3.78;;
77055;SDS011;67471;44.918;8.614;2023-07-13T17:22:15;9.48;;;4.10;;
77055;SDS011;67471;44.918;8.614;2023-07-13T17:25:21;12.25;;;4.20;;
77055;SDS011;67471;44.918;8.614;2023-07-13T17:28:28;10.63;;;3.80;;
77055;SDS011;67471;44.918;8.614;2023-07-13T17:31:33;9.82;;;4.20;;
77055;SDS011;67471;44.918;8.614;2023-07-13T17:34:37;7.35;;;3.95;;
77055;SDS011;67471;44.918;8.614;2023-07-13T17:37:48;8.02;;;4.20;;
77055;SDS011;67471;44.918;8.614;2023-07-13T17:40:52;7.25;;;4.30;;
77055;SDS011;67471;44.918;8.614;2023-07-13T17:43:56;7.60;;;3.50;;
77055;SDS011;67471;44.918;8.614;2023-07-13T17:47:00;8.40;;;4.82;;
77055;SDS011;67471;44.918;8.614;2023-07-13T17:50:12;8.82;;;4.15;;
77055;SDS011;67471;44.918;8.614;2023-07-13T17:53:18;10.30;;;4.43;;
77055;SDS011;67471;44.918;8.614;2023-07-13T17:56:23;7.85;;;4.18;;
77055;SDS011;67471;44.918;8.614;2023-07-13T17:59:28;8.57;;;4.07;;
77055;SDS011;67471;44.918;8.614;2023-07-13T18:02:32;10.57;;;4.25;;
77055;SDS011;67471;44.918;8.614;2023-07-13T18:05:36;9.25;;;3.97;;
77055;SDS011;67471;44.918;8.614;2023-07-13T18:08:40;8.05;;;5.13;;
77055;SDS011;67471;44.918;8.614;2023-07-13T18:11:44;10.80;;;4.97;;
77055;SDS011;67471;44.918;8.614;2023-07-13T18:14:48;7.82;;;4.53;;
77055;SDS011;67471;44.918;8.614;2023-07-13T18:17:51;8.88;;;4.30;;
77055;SDS011;67471;44.918;8.614;2023-07-13T18:20:55;13.82;;;4.63;;
77055;SDS011;67471;44.918;8.614;2023-07-13T18:23:59;10.57;;;4.93;;
77055;SDS011;67471;44.918;8.614;2023-07-13T18:27:06;10.23;;;4.57;;
77055;SDS011;67471;44.918;8.614;2023-07-13T18:30:11;11.70;;;4.35;;
77055;SDS011;67471;44.918;8.614;2023-07-13T18:33:24;7.72;;;4.22;;
77055;SDS011;67471;44.918;8.614;2023-07-13T18:36:29;9.45;;;4.05;;
77055;SDS011;67471;44.918;8.614;2023-07-13T18:39:33;11.38;;;3.95;;
77055;SDS011;67471;44.918;8.614;2023-07-13T18:42:37;10.05;;;4.45;;
77055;SDS011;67471;44.918;8.614;2023-07-13T18:45:41;7.68;;;4.15;;
77055;SDS011;67471;44.918;8.614;2023-07-13T18:48:45;10.98;;;5.00;;
77055;SDS011;67471;44.918;8.614;2023-07-13T18:51:49;6.32;;;4.07;;
77055;SDS011;67471;44.918;8.614;2023-07-13T18:54:55;8.00;;;4.50;;
77055;SDS011;67471;44.918;8.614;2023-07-13T18:57:58;10.80;;;4.72;;
77055;SDS011;67471;44.918;8.614;2023-07-13T19:01:02;9.88;;;4.43;;
77055;SDS011;67471;44.918;8.614;2023-07-13T19:07:30;14.30;;;4.82;;
77055;SDS011;67471;44.918;8.614;2023-07-13T19:10:35;11.90;;;4.07;;
77055;SDS011;67471;44.918;8.614;2023-07-13T19:13:39;9.13;;;4.68;;
77055;SDS011;67471;44.918;8.614;2023-07-13T19:16:43;8.57;;;4.00;;
77055;SDS011;67471;44.918;8.614;2023-07-13T19:19:46;8.73;;;4.20;;